Time;durP1;ratioP1;P1;durP2;ratioP2;P2;SDS_P1;SDS_P2;PMS_P1;PMS_P2;Temp;Humidity;BMP_temperature;BMP_pressure;BME280_temperature;BME280_humidity;BME280_pressure;Samples;Min_cycle;Max_cycle;Signal;HPM_P1;HPM_P2
2022/10/09 00:00:46;;;;;;;3.10;2.37;;;9.00;99.90;;;;;;4919410;29;20227;-74
2022/10/09 00:03:13;;;;;;;6.60;2.37;;;9.00;99.90;;;;;;4913197;29;20216;-80
2022/10/09 00:05:39;;;;;;;4.03;2.00;;;9.00;99.90;;;;;;4948470;29;20194;-80
2022/10/09 00:08:04;;;;;;;4.97;2.33;;;8.90;99.90;;;;;;4912682;28;20219;-74
2022/10/09 00:10:30;;;;;;;11.83;2.90;;;9.00;99.90;;;;;;4940590;29;20269;-73
2022/10/09 00:12:56;;;;;;;5.87;2.10;;;8.90;99.90;;;;;;4921873;29;20233;-76
2022/10/09 00:15:22;;;;;;;4.33;1.90;;;8.80;99.90;;;;;;4937683;29;20214;-75
2022/10/09 00:17:47;;;;;;;4.63;1.83;;;8.90;99.90;;;;;;4919345;29;20204;-75
2022/10/09 00:20:13;;;;;;;6.90;2.53;;;8.80;99.90;;;;;;4934620;29;20200;-78
2022/10/09 00:22:38;;;;;;;4.53;1.87;;;8.80;99.90;;;;;;4921350;29;20203;-76
2022/10/09 00:25:05;;;;;;;4.67;1.90;;;8.90;99.90;;;;;;4920615;29;20188;-75
2022/10/09 00:27:30;;;;;;;3.87;1.80;;;8.80;99.90;;;;;;4916590;29;20260;-76
2022/10/09 00:29:56;;;;;;;5.57;2.00;;;8.80;99.90;;;;;;4914516;29;20195;-75
2022/10/09 00:32:21;;;;;;;3.17;1.60;;;8.80;99.90;;;;;;4915831;29;20266;-75
2022/10/09 00:34:47;;;;;;;2.33;1.67;;;8.80;99.90;;;;;;4918282;29;20784;-75
2022/10/09 00:37:12;;;;;;;7.53;1.87;;;8.70;99.90;;;;;;4916303;29;20200;-75
2022/10/09 00:39:38;;;;;;;9.63;2.50;;;8.70;99.90;;;;;;4917449;29;20229;-72
2022/10/09 00:42:04;;;;;;;6.67;2.00;;;8.70;99.90;;;;;;4916186;29;20283;-70
2022/10/09 00:44:53;;;;;;;3.97;1.90;;;8.70;99.90;;;;;;4914578;29;20307;-75
2022/10/09 00:47:42;;;;;;;3.50;2.13;;;8.70;99.90;;;;;;4926459;28;20191;-77
2022/10/09 00:50:20;;;;;;;6.03;2.07;;;8.60;99.90;;;;;;4919007;29;20198;-73
2022/10/09 00:52:48;;;;;;;5.00;1.93;;;8.50;99.90;;;;;;4917700;29;20231;-77
2022/10/09 00:55:15;;;;;;;4.50;2.53;;;8.50;99.90;;;;;;4919690;29;20223;-74
2022/10/09 00:57:41;;;;;;;5.57;2.53;;;8.60;99.90;;;;;;4922438;29;20675;-74
2022/10/09 01:00:10;;;;;;;7.40;2.70;;;8.50;99.90;;;;;;4936236;29;20299;-75
2022/10/09 01:02:36;;;;;;;5.00;2.93;;;8.60;99.90;;;;;;4923417;29;20239;-81
2022/10/09 01:05:03;;;;;;;6.63;3.03;;;8.60;99.90;;;;;;4916161;29;20607;-70
2022/10/09 01:07:33;;;;;;;7.43;2.17;;;8.60;99.90;;;;;;4917872;29;20207;-70
2022/10/09 01:10:16;;;;;;;5.40;2.33;;;8.60;99.90;;;;;;4910467;29;20236;-74
2022/10/09 01:13:04;;;;;;;7.03;2.53;;;8.60;99.90;;;;;;4923789;28;20207;-80
2022/10/09 01:15:37;;;;;;;13.37;2.60;;;8.60;99.90;;;;;;4925515;29;20211;-86
2022/10/09 01:18:28;;;;;;;5.37;1.73;;;8.60;99.90;;;;;;4910809;29;20207;-67
2022/10/09 01:21:02;;;;;;;6.73;2.10;;;8.70;99.90;;;;;;4907057;29;20536;-67
2022/10/09 01:24:05;;;;;;;7.33;2.17;;;8.70;99.90;;;;;;4911227;29;20208;-67
2022/10/09 01:26:59;;;;;;;5.03;2.73;;;8.80;99.90;;;;;;4914977;29;20404;-67
2022/10/09 01:29:31;;;;;;;7.33;1.93;;;8.80;99.90;;;;;;4907818;29;20194;-67
2022/10/09 01:31:58;;;;;;;2.93;2.20;;;8.80;99.90;;;;;;4912783;29;20314;-67
2022/10/09 01:34:25;;;;;;;4.57;2.30;;;8.70;99.90;;;;;;4919929;29;20239;-67
2022/10/09 01:36:53;;;;;;;5.37;2.30;;;8.70;99.90;;;;;;4927600;29;20286;-67
2022/10/09 01:39:21;;;;;;;5.40;2.30;;;8.70;99.90;;;;;;4923561;29;20322;-67
2022/10/09 01:41:49;;;;;;;4.70;2.30;;;8.60;99.90;;;;;;4927404;29;20203;-68
2022/10/09 01:44:27;;;;;;;4.93;2.47;;;8.60;99.90;;;;;;4922304;29;20909;-68
2022/10/09 01:46:52;;;;;;;6.10;2.40;;;8.60;99.90;;;;;;4924418;29;20202;-67
2022/10/09 01:49:41;;;;;;;5.23;2.30;;;8.50;99.90;;;;;;4920795;29;20228;-66
2022/10/09 01:52:12;;;;;;;10.47;2.63;;;8.50;99.90;;;;;;4906955;29;20695;-67
2022/10/09 01:55:05;;;;;;;9.93;2.50;;;8.50;99.90;;;;;;4925377;29;20682;-67
2022/10/09 01:57:50;;;;;;;6.27;1.93;;;8.50;99.90;;;;;;4908414;29;20321;-67
2022/10/09 02:00:16;;;;;;;3.80;2.20;;;8.40;99.90;;;;;;4910185;29;20204;-68
2022/10/09 02:02:43;;;;;;;6.73;2.67;;;8.40;99.90;;;;;;4926854;29;20199;-68
2022/10/09 02:05:11;;;;;;;2.10;1.80;;;8.40;99.90;;;;;;4930057;29;20202;-68
2022/10/09 02:07:37;;;;;;;7.40;2.43;;;8.30;99.90;;;;;;4929157;29;20215;-66
2022/10/09 02:10:06;;;;;;;7.17;2.60;;;8.30;99.90;;;;;;4944038;28;21024;-66
2022/10/09 02:12:37;;;;;;;5.53;2.37;;;8.30;99.90;;;;;;4931114;29;20226;-67
2022/10/09 02:15:03;;;;;;;5.13;2.77;;;8.20;99.90;;;;;;4928972;28;20230;-67
2022/10/09 02:17:33;;;;;;;2.97;2.20;;;8.20;99.90;;;;;;4935128;29;20290;-67
2022/10/09 02:20:07;;;;;;;3.70;1.80;;;8.20;99.90;;;;;;4919243;29;20194;-67
2022/10/09 02:22:35;;;;;;;6.20;2.67;;;8.20;99.90;;;;;;4923365;29;20213;-66
2022/10/09 02:25:04;;;;;;;8.23;2.93;;;8.20;99.90;;;;;;4926099;29;20571;-66
2022/10/09 02:27:30;;;;;;;12.27;3.47;;;8.10;99.90;;;;;;4933491;29;20290;-67
2022/10/09 02:29:57;;;;;;;6.60;2.77;;;8.10;99.90;;;;;;4919876;29;20633;-71
2022/10/09 02:32:23;;;;;;;5.93;1.90;;;8.20;99.90;;;;;;4918302;28;20215;-71
2022/10/09 02:34:48;;;;;;;12.13;2.57;;;8.10;99.90;;;;;;4919338;29;20705;-71
2022/10/09 02:37:14;;;;;;;5.53;2.43;;;8.10;99.90;;;;;;4918694;29;20662;-74
2022/10/09 02:39:40;;;;;;;9.53;2.13;;;8.10;99.90;;;;;;4916652;29;20187;-70
2022/10/09 02:42:06;;;;;;;8.50;3.23;;;8.00;99.90;;;;;;4915056;29;20208;-71
2022/10/09 02:44:31;;;;;;;3.70;2.47;;;8.00;99.90;;;;;;4916895;29;20186;-73
2022/10/09 02:46:57;;;;;;;7.67;2.37;;;8.00;99.90;;;;;;4914303;29;20200;-74
2022/10/09 02:49:23;;;;;;;9.03;2.77;;;7.90;99.90;;;;;;4917582;29;20176;-69
2022/10/09 02:51:48;;;;;;;5.40;1.90;;;7.90;99.90;;;;;;4918952;29;20235;-71
2022/10/09 02:54:13;;;;;;;3.70;2.37;;;7.90;99.90;;;;;;4916895;29;20207;-70
2022/10/09 02:56:39;;;;;;;5.83;2.43;;;7.90;99.90;;;;;;4919650;29;20179;-74
2022/10/09 02:59:05;;;;;;;4.13;2.30;;;7.80;99.90;;;;;;4911233;29;20600;-68
2022/10/09 03:01:30;;;;;;;8.63;2.40;;;7.80;99.90;;;;;;4915762;29;20228;-68
2022/10/09 03:03:56;;;;;;;7.07;2.23;;;7.80;99.90;;;;;;4913076;29;20200;-69
2022/10/09 03:06:23;;;;;;;5.40;2.40;;;7.80;99.90;;;;;;4940504;28;20187;-69
2022/10/09 03:08:51;;;;;;;4.10;2.33;;;7.80;99.90;;;;;;4914694;29;20202;-69
2022/10/09 03:11:18;;;;;;;13.03;2.87;;;7.80;99.90;;;;;;4917019;29;20238;-69
2022/10/09 03:13:44;;;;;;;4.37;2.10;;;7.70;99.90;;;;;;4918037;29;20821;-69
2022/10/09 03:16:15;;;;;;;4.63;2.30;;;7.70;99.90;;;;;;4925465;29;20230;-69
2022/10/09 03:18:41;;;;;;;6.97;2.67;;;7.70;99.90;;;;;;4906949;29;20215;-69
2022/10/09 03:21:09;;;;;;;3.00;2.03;;;7.70;99.90;;;;;;4942094;29;20202;-69
2022/10/09 03:23:35;;;;;;;8.13;2.90;;;7.60;99.90;;;;;;4920303;29;20690;-69
2022/10/09 03:26:03;;;;;;;4.90;2.50;;;7.60;99.90;;;;;;4945788;29;20190;-69
2022/10/09 03:28:29;;;;;;;4.73;2.00;;;7.60;99.90;;;;;;4907450;28;20745;-69
2022/10/09 03:30:55;;;;;;;8.20;2.20;;;7.60;99.90;;;;;;4939210;29;20249;-68
2022/10/09 03:33:21;;;;;;;5.47;2.93;;;7.50;99.90;;;;;;4920218;29;20418;-70
2022/10/09 03:35:48;;;;;;;4.60;2.53;;;7.50;99.90;;;;;;4936535;28;20216;-69
2022/10/09 03:38:14;;;;;;;5.10;2.37;;;7.50;99.90;;;;;;4921239;29;20208;-68
2022/10/09 03:40:40;;;;;;;4.97;3.23;;;7.50;99.90;;;;;;4925402;29;20202;-69
2022/10/09 03:43:06;;;;;;;3.90;2.50;;;7.50;99.90;;;;;;4923556;29;20210;-69
2022/10/09 03:45:31;;;;;;;6.47;2.93;;;7.40;99.90;;;;;;4934561;29;20274;-68
2022/10/09 03:47:57;;;;;;;6.03;2.30;;;7.40;99.90;;;;;;4926586;29;20215;-69
2022/10/09 03:50:23;;;;;;;7.47;2.30;;;7.40;99.90;;;;;;4931070;29;20200;-69
2022/10/09 03:52:48;;;;;;;5.97;2.30;;;7.40;99.90;;;;;;4920569;29;20231;-69
2022/10/09 03:55:14;;;;;;;6.80;3.27;;;7.40;99.90;;;;;;4933799;29;20579;-69
2022/10/09 03:57:39;;;;;;;3.13;2.30;;;7.40;99.90;;;;;;4931129;29;20293;-69
2022/10/09 04:00:06;;;;;;;7.90;2.50;;;7.30;99.90;;;;;;4915104;29;20462;-69
2022/10/09 04:02:32;;;;;;;3.60;2.27;;;7.40;99.90;;;;;;4923700;29;20207;-69
2022/10/09 04:04:58;;;;;;;5.13;2.43;;;7.30;99.90;;;;;;4917614;29;20674;-69
2022/10/09 04:07:23;;;;;;;3.80;2.87;;;7.30;99.90;;;;;;4926399;29;20203;-68
2022/10/09 04:09:49;;;;;;;5.93;2.77;;;7.30;99.90;;;;;;4919671;29;20194;-68
2022/10/09 04:12:14;;;;;;;4.43;2.27;;;7.20;99.90;;;;;;4924708;29;20203;-67
2022/10/09 04:14:40;;;;;;;6.63;2.63;;;7.20;99.90;;;;;;4907798;29;20222;-68
2022/10/09 04:17:06;;;;;;;4.43;2.43;;;7.20;99.90;;;;;;4930174;29;20521;-67
2022/10/09 04:19:31;;;;;;;9.30;2.20;;;7.20;99.90;;;;;;4911980;29;20631;-68
2022/10/09 04:21:57;;;;;;;5.63;2.37;;;7.20;99.90;;;;;;4918043;29;20194;-68
2022/10/09 04:24:22;;;;;;;6.77;2.57;;;7.10;99.90;;;;;;4915857;29;20226;-68
2022/10/09 04:26:48;;;;;;;6.70;2.50;;;7.10;99.90;;;;;;4935953;29;20238;-68
2022/10/09 04:29:14;;;;;;;11.77;2.70;;;7.20;99.90;;;;;;4916491;29;20270;-68
2022/10/09 04:31:39;;;;;;;5.43;2.30;;;7.20;99.90;;;;;;4945154;29;20516;-68
2022/10/09 04:34:04;;;;;;;7.03;2.73;;;7.10;99.90;;;;;;4923630;28;20219;-68
2022/10/09 04:36:30;;;;;;;5.63;2.00;;;7.10;99.90;;;;;;4943878;29;20228;-68
2022/10/09 04:38:55;;;;;;;4.20;2.23;;;7.10;99.90;;;;;;4910511;28;20211;-68
2022/10/09 04:41:21;;;;;;;13.80;2.70;;;7.10;99.90;;;;;;4934931;29;20198;-68
2022/10/09 04:43:46;;;;;;;5.70;2.37;;;7.00;99.90;;;;;;4916047;29;20583;-68
2022/10/09 04:46:13;;;;;;;6.17;2.37;;;7.10;99.90;;;;;;4943177;29;20209;-68
2022/10/09 04:48:43;;;;;;;3.23;2.07;;;7.10;99.90;;;;;;4923257;29;20211;-68
2022/10/09 04:51:10;;;;;;;2.33;2.20;;;7.10;99.90;;;;;;4940292;28;20628;-68
2022/10/09 04:53:36;;;;;;;4.60;2.10;;;7.10;99.90;;;;;;4916128;29;20691;-69
2022/10/09 04:56:08;;;;;;;4.40;2.27;;;7.00;99.90;;;;;;4929420;29;20219;-68
2022/10/09 04:58:35;;;;;;;8.50;2.70;;;7.00;99.90;;;;;;4913222;29;20204;-69
2022/10/09 05:01:09;;;;;;;6.97;3.03;;;7.00;99.90;;;;;;4943873;29;20224;-69
2022/10/09 05:03:35;;;;;;;6.37;2.63;;;7.10;99.90;;;;;;4906650;29;20199;-68
2022/10/09 05:06:03;;;;;;;7.40;2.50;;;7.00;99.90;;;;;;4944410;29;20202;-67
2022/10/09 05:08:33;;;;;;;5.13;2.43;;;7.10;99.90;;;;;;4926706;29;20212;-68
2022/10/09 05:11:05;;;;;;;6.87;3.80;;;7.10;99.90;;;;;;4923688;28;20684;-67
2022/10/09 05:13:37;;;;;;;3.93;2.90;;;7.00;99.90;;;;;;4916476;29;20507;-68
2022/10/09 05:16:04;;;;;;;9.80;4.07;;;7.00;99.90;;;;;;4916811;29;20219;-68
2022/10/09 05:18:30;;;;;;;8.70;3.20;;;7.00;99.90;;;;;;4935270;29;20467;-67
2022/10/09 05:20:56;;;;;;;6.40;3.43;;;7.00;99.90;;;;;;4929179;29;20202;-68
2022/10/09 05:23:22;;;;;;;4.57;2.50;;;7.00;99.90;;;;;;4933393;29;20206;-67
2022/10/09 05:25:53;;;;;;;5.10;3.20;;;7.20;99.90;;;;;;4930844;29;20207;-69
2022/10/09 05:28:19;;;;;;;6.63;3.17;;;7.40;99.90;;;;;;4937502;29;20213;-70
2022/10/09 05:30:44;;;;;;;6.53;3.60;;;7.50;99.90;;;;;;4933858;29;20204;-69
2022/10/09 05:33:10;;;;;;;8.67;4.27;;;7.70;99.90;;;;;;4930577;29;20208;-70
2022/10/09 05:35:35;;;;;;;9.97;3.67;;;7.70;99.90;;;;;;4910364;28;20219;-69
2022/10/09 05:38:01;;;;;;;6.47;3.27;;;7.80;99.90;;;;;;4933456;29;20663;-69
2022/10/09 05:40:26;;;;;;;9.80;3.73;;;7.80;99.90;;;;;;4916526;28;20297;-69
2022/10/09 05:42:52;;;;;;;7.87;4.40;;;7.90;99.90;;;;;;4940435;29;20203;-70
2022/10/09 05:45:17;;;;;;;6.13;2.83;;;7.90;99.90;;;;;;4920308;29;20218;-69
2022/10/09 05:47:43;;;;;;;5.77;3.63;;;7.90;99.90;;;;;;4932722;29;20211;-69
2022/10/09 05:50:08;;;;;;;7.73;3.63;;;7.90;99.90;;;;;;4929276;29;20267;-68
2022/10/09 05:52:34;;;;;;;11.57;3.60;;;7.80;99.90;;;;;;4929496;29;20238;-68
2022/10/09 05:55:00;;;;;;;8.37;3.17;;;7.80;99.90;;;;;;4921906;29;20267;-68
2022/10/09 05:57:25;;;;;;;6.30;2.83;;;7.70;99.90;;;;;;4942529;29;20209;-68
2022/10/09 05:59:51;;;;;;;6.07;2.83;;;7.70;99.90;;;;;;4923895;29;20426;-68
2022/10/09 06:02:16;;;;;;;6.07;3.60;;;7.60;99.90;;;;;;4937582;29;20202;-68
2022/10/09 06:04:42;;;;;;;4.53;2.40;;;7.60;99.90;;;;;;4912719;29;20233;-69
2022/10/09 06:07:07;;;;;;;10.23;4.10;;;7.60;99.90;;;;;;4939752;29;20491;-69
2022/10/09 06:09:33;;;;;;;3.67;2.73;;;7.60;99.90;;;;;;4920491;29;20203;-68
2022/10/09 06:11:58;;;;;;;5.77;3.03;;;7.60;99.90;;;;;;4925848;29;20665;-68
2022/10/09 06:14:23;;;;;;;5.37;3.03;;;7.60;99.90;;;;;;4919272;29;20211;-67
2022/10/09 06:16:50;;;;;;;8.53;3.70;;;7.60;99.90;;;;;;4932581;29;20282;-68
2022/10/09 06:19:17;;;;;;;5.07;2.73;;;7.60;99.90;;;;;;4921231;29;20285;-67
2022/10/09 06:21:44;;;;;;;8.53;3.30;;;7.70;99.90;;;;;;4938868;28;20206;-71
2022/10/09 06:24:18;;;;;;;7.70;3.30;;;7.70;99.90;;;;;;4926419;29;20738;-69
2022/10/09 06:26:44;;;;;;;10.40;3.13;;;7.70;99.90;;;;;;4923895;29;20709;-70
2022/10/09 06:29:09;;;;;;;15.63;3.13;;;7.70;99.90;;;;;;4920863;29;20510;-69
2022/10/09 06:31:35;;;;;;;4.30;3.10;;;7.70;99.90;;;;;;4936759;28;20222;-69
2022/10/09 06:34:02;;;;;;;4.27;2.90;;;7.80;99.90;;;;;;4921215;29;20615;-68
2022/10/09 06:36:30;;;;;;;8.80;3.37;;;7.90;99.90;;;;;;4936817;29;20199;-66
2022/10/09 06:38:58;;;;;;;9.03;3.03;;;7.90;99.90;;;;;;4918969;29;20266;-68
2022/10/09 06:41:25;;;;;;;6.30;3.00;;;8.00;99.90;;;;;;4933306;29;20207;-67
2022/10/09 06:43:56;;;;;;;12.50;3.80;;;8.10;99.90;;;;;;4918886;29;20308;-67
2022/10/09 06:46:25;;;;;;;5.50;3.27;;;8.10;99.90;;;;;;4918574;29;20660;-67
2022/10/09 06:48:50;;;;;;;6.27;2.83;;;8.20;99.90;;;;;;4923777;29;20574;-67
2022/10/09 06:51:18;;;;;;;4.40;3.40;;;8.30;99.90;;;;;;4928373;28;20199;-67
2022/10/09 06:53:46;;;;;;;7.77;3.43;;;8.30;99.90;;;;;;4925553;29;20235;-67
2022/10/09 06:56:13;;;;;;;7.33;3.67;;;8.40;99.90;;;;;;4941929;29;20686;-66
2022/10/09 06:58:39;;;;;;;6.00;3.20;;;8.50;99.90;;;;;;4931329;29;20217;-67
2022/10/09 07:01:07;;;;;;;6.23;3.40;;;8.50;99.90;;;;;;4942545;29;20195;-67
2022/10/09 07:03:34;;;;;;;5.20;3.43;;;8.60;99.90;;;;;;4933421;29;20195;-68
2022/10/09 07:06:17;;;;;;;7.70;4.50;;;8.60;99.90;;;;;;4921582;29;20854;-67
2022/10/09 07:08:45;;;;;;;7.67;2.70;;;8.70;99.90;;;;;;4923143;29;20223;-67
2022/10/09 07:11:19;;;;;;;4.80;2.63;;;8.80;99.90;;;;;;4934069;29;20203;-67
2022/10/09 07:13:45;;;;;;;5.70;3.00;;;8.90;99.90;;;;;;4923332;29;20211;-66
2022/10/09 07:16:11;;;;;;;7.10;2.83;;;9.00;99.90;;;;;;4929517;29;20223;-67
2022/10/09 07:18:37;;;;;;;6.70;3.80;;;9.10;99.90;;;;;;4932326;29;20218;-67
2022/10/09 07:21:05;;;;;;;9.83;3.20;;;9.10;99.90;;;;;;4938053;29;20307;-66
2022/10/09 07:23:32;;;;;;;6.23;3.10;;;9.20;99.90;;;;;;4933446;29;20825;-66
2022/10/09 07:25:59;;;;;;;15.77;3.87;;;9.30;99.90;;;;;;4911716;29;20872;-66
2022/10/09 07:28:27;;;;;;;5.67;2.93;;;9.30;99.90;;;;;;4931751;29;20691;-66
2022/10/09 07:30:52;;;;;;;4.83;2.80;;;9.40;99.90;;;;;;4908426;29;20630;-67
2022/10/09 07:33:18;;;;;;;5.53;3.47;;;9.50;99.90;;;;;;4921069;29;20207;-66
2022/10/09 07:35:53;;;;;;;8.23;3.00;;;9.60;99.90;;;;;;4920349;29;20222;-66
2022/10/09 07:38:18;;;;;;;6.70;2.93;;;9.60;99.90;;;;;;4917982;29;20193;-66
2022/10/09 07:40:44;;;;;;;5.60;3.13;;;9.70;99.90;;;;;;4919718;29;20546;-67
2022/10/09 07:43:09;;;;;;;8.20;2.33;;;9.70;99.90;;;;;;4939087;29;20825;-70
2022/10/09 07:45:35;;;;;;;6.53;2.90;;;9.70;99.90;;;;;;4918704;28;20232;-67
2022/10/09 07:48:00;;;;;;;3.03;2.60;;;9.80;99.90;;;;;;4930483;29;20226;-66
2022/10/09 07:50:26;;;;;;;7.17;2.93;;;9.90;99.90;;;;;;4917922;29;20199;-66
2022/10/09 07:52:51;;;;;;;7.60;3.13;;;9.90;99.90;;;;;;4932759;29;20234;-67
2022/10/09 07:55:16;;;;;;;12.33;3.10;;;10.00;99.90;;;;;;4922097;29;20310;-67
2022/10/09 07:57:43;;;;;;;9.60;3.47;;;10.10;99.90;;;;;;4936208;29;20511;-67
2022/10/09 08:00:09;;;;;;;8.50;3.50;;;10.10;99.90;;;;;;4909988;29;20200;-68
2022/10/09 08:02:35;;;;;;;7.70;3.23;;;10.20;99.90;;;;;;4937813;29;20205;-67
2022/10/09 08:05:00;;;;;;;9.23;3.10;;;10.20;99.90;;;;;;4914865;29;20580;-67
2022/10/09 08:07:25;;;;;;;7.93;2.80;;;10.20;99.90;;;;;;4935000;29;20214;-67
2022/10/09 08:09:51;;;;;;;9.43;2.63;;;10.30;99.90;;;;;;4911999;29;20320;-67
2022/10/09 08:12:17;;;;;;;8.70;3.17;;;10.30;99.90;;;;;;4939823;29;20203;-68
2022/10/09 08:14:42;;;;;;;4.60;2.70;;;10.40;99.90;;;;;;4913311;29;20291;-67
2022/10/09 08:17:08;;;;;;;5.53;2.70;;;10.40;99.90;;;;;;4941176;29;20651;-67
2022/10/09 08:19:33;;;;;;;6.30;3.07;;;10.40;99.90;;;;;;4920976;29;20294;-68
2022/10/09 08:21:59;;;;;;;6.53;2.67;;;10.50;99.90;;;;;;4912080;29;20813;-69
2022/10/09 08:24:24;;;;;;;6.80;2.17;;;10.50;99.90;;;;;;4918868;29;20221;-68
2022/10/09 08:26:50;;;;;;;4.17;2.40;;;10.60;99.90;;;;;;4926561;29;20222;-67
2022/10/09 08:29:17;;;;;;;6.97;2.80;;;10.60;99.90;;;;;;4919224;29;20220;-70
2022/10/09 08:31:42;;;;;;;8.57;2.47;;;10.70;99.90;;;;;;4936732;29;20218;-68
2022/10/09 08:34:09;;;;;;;9.90;2.60;;;10.80;99.90;;;;;;4927023;29;20208;-68
2022/10/09 08:36:34;;;;;;;9.17;2.20;;;10.90;99.90;;;;;;4943898;29;20180;-67
2022/10/09 08:39:00;;;;;;;5.50;2.40;;;10.90;99.90;;;;;;4929008;28;20560;-67
2022/10/09 08:41:32;;;;;;;3.83;2.00;;;11.00;99.90;;;;;;4919100;29;20328;-67
2022/10/09 08:44:09;;;;;;;6.53;2.43;;;11.10;99.90;;;;;;4913255;29;20300;-66
2022/10/09 08:46:46;;;;;;;8.43;2.80;;;11.10;99.90;;;;;;4919784;29;20188;-67
2022/10/09 08:49:30;;;;;;;7.37;2.70;;;11.20;99.90;;;;;;4914358;29;20208;-76
2022/10/09 08:51:59;;;;;;;4.67;2.30;;;11.30;99.90;;;;;;4919549;29;20236;-68
2022/10/09 08:54:35;;;;;;;7.03;3.07;;;11.40;99.90;;;;;;4916324;29;20339;-69
2022/10/09 08:57:03;;;;;;;6.73;2.30;;;11.50;99.90;;;;;;4928938;29;20204;-68
2022/10/09 08:59:30;;;;;;;4.40;2.23;;;11.60;99.90;;;;;;4924842;29;20214;-69
2022/10/09 09:02:13;;;;;;;8.97;3.07;;;11.70;99.90;;;;;;4920839;29;20197;-68
2022/10/09 09:04:53;;;;;;;9.53;3.20;;;11.80;99.90;;;;;;4916978;29;20214;-68
2022/10/09 09:07:37;;;;;;;6.93;2.83;;;11.90;99.90;;;;;;4920161;29;20283;-68
2022/10/09 09:10:36;;;;;;;6.20;2.00;;;12.00;99.90;;;;;;4915716;29;20719;-67
2022/10/09 09:13:29;;;;;;;10.33;2.67;;;12.10;99.90;;;;;;4909634;29;20269;-68
2022/10/09 09:16:04;;;;;;;6.83;2.13;;;12.20;99.90;;;;;;4924467;29;20595;-69
2022/10/09 09:18:39;;;;;;;4.90;2.53;;;12.20;99.90;;;;;;4923042;29;20203;-67
2022/10/09 09:21:37;;;;;;;5.30;2.10;;;12.30;99.90;;;;;;4918774;29;20190;-67
2022/10/09 09:24:23;;;;;;;6.87;3.03;;;12.30;99.90;;;;;;4924052;29;20203;-81
2022/10/09 09:26:54;;;;;;;4.80;1.97;;;12.40;99.90;;;;;;4910746;29;20194;-81
2022/10/09 09:29:24;;;;;;;9.13;2.53;;;12.50;99.90;;;;;;4918736;29;20214;-68
2022/10/09 09:31:53;;;;;;;9.93;2.03;;;12.60;99.90;;;;;;4934983;29;20951;-68
2022/10/09 09:34:33;;;;;;;8.43;2.47;;;12.70;99.90;;;;;;4928165;29;20209;-70
2022/10/09 09:36:59;;;;;;;6.73;2.30;;;12.80;99.90;;;;;;4910527;29;20192;-68
2022/10/09 09:39:27;;;;;;;7.40;2.10;;;12.90;99.90;;;;;;4927358;29;20263;-70
2022/10/09 09:41:59;;;;;;;9.07;2.47;;;12.90;99.90;;;;;;4937967;29;20199;-70
2022/10/09 09:44:25;;;;;;;5.00;1.80;;;13.00;99.90;;;;;;4918237;29;20210;-69
2022/10/09 09:46:51;;;;;;;6.40;2.10;;;13.00;99.90;;;;;;4942031;29;20205;-69
2022/10/09 09:49:19;;;;;;;6.83;1.80;;;13.00;99.90;;;;;;4926932;29;20262;-69
2022/10/09 09:51:47;;;;;;;8.90;2.50;;;13.20;99.90;;;;;;4942176;29;20311;-68
2022/10/09 09:54:20;;;;;;;4.93;2.43;;;13.30;99.90;;;;;;4928704;28;20212;-69
2022/10/09 09:56:47;;;;;;;6.63;2.43;;;13.40;99.90;;;;;;4925512;28;20247;-69
2022/10/09 09:59:37;;;;;;;6.63;2.20;;;13.50;99.90;;;;;;4927420;29;20200;-69
2022/10/09 10:02:11;;;;;;;8.67;2.57;;;13.50;99.90;;;;;;4928104;28;20203;-70
2022/10/09 10:04:51;;;;;;;6.53;1.97;;;13.50;99.90;;;;;;4927707;29;20212;-69
2022/10/09 10:07:34;;;;;;;4.83;1.67;;;13.60;99.90;;;;;;4918130;29;20209;-69
2022/10/09 10:10:14;;;;;;;7.73;1.67;;;13.70;99.90;;;;;;4908922;28;20214;-70
2022/10/09 10:12:51;;;;;;;5.47;1.83;;;13.80;99.90;;;;;;4909177;29;20230;-69
2022/10/09 10:15:32;;;;;;;6.43;2.20;;;13.90;99.90;;;;;;4907393;29;20247;-70
2022/10/09 10:18:04;;;;;;;8.57;1.73;;;13.90;99.90;;;;;;4928197;29;20195;-70
2022/10/09 10:20:31;;;;;;;8.50;2.07;;;14.00;99.90;;;;;;4910195;29;20580;-69
2022/10/09 10:22:59;;;;;;;6.03;1.80;;;14.00;99.90;;;;;;4933663;28;20198;-69
2022/10/09 10:25:35;;;;;;;3.93;2.03;;;14.20;99.90;;;;;;4916349;29;20207;-69
2022/10/09 10:28:12;;;;;;;3.40;1.80;;;14.40;99.90;;;;;;4930243;28;20959;-70
2022/10/09 10:30:38;;;;;;;9.77;2.33;;;14.70;99.90;;;;;;4917267;29;20410;-71
2022/10/09 10:33:20;;;;;;;4.37;1.93;;;14.90;99.90;;;;;;4927085;29;20248;-72
2022/10/09 10:35:50;;;;;;;5.03;2.07;;;15.20;99.90;;;;;;4920962;29;20223;-69
2022/10/09 10:38:18;;;;;;;3.13;1.37;;;15.50;99.90;;;;;;4941755;29;20183;-68
2022/10/09 10:40:54;;;;;;;6.60;1.57;;;15.80;99.90;;;;;;4921827;29;20531;-68
2022/10/09 10:43:36;;;;;;;8.13;1.73;;;16.00;99.90;;;;;;4913792;29;20293;-68
2022/10/09 10:46:21;;;;;;;5.97;1.77;;;16.20;99.90;;;;;;4918510;29;20214;-71
2022/10/09 10:48:48;;;;;;;4.63;1.73;;;16.30;99.90;;;;;;4918068;29;20207;-71
2022/10/09 10:51:35;;;;;;;5.80;1.50;;;16.40;99.90;;;;;;4919758;29;20191;-70
2022/10/09 10:54:41;;;;;;;4.57;1.47;;;15.90;99.90;;;;;;4925324;28;20235;-71
2022/10/09 10:57:21;;;;;;;7.97;1.20;;;15.60;99.90;;;;;;4945199;29;20201;-71
2022/10/09 11:00:05;;;;;;;5.30;0.97;;;15.70;99.90;;;;;;4909142;29;20199;-71
2022/10/09 11:02:49;;;;;;;7.47;1.67;;;16.00;99.90;;;;;;4918166;29;20469;-71
2022/10/09 11:05:26;;;;;;;4.73;1.87;;;16.20;99.90;;;;;;4917403;29;20202;-71
2022/10/09 11:08:33;;;;;;;4.77;1.37;;;16.00;99.90;;;;;;4920336;29;20273;-71
2022/10/09 11:11:11;;;;;;;4.97;1.23;;;16.10;99.90;;;;;;4916520;29;20188;-70
2022/10/09 11:14:01;;;;;;;6.53;1.70;;;15.50;99.90;;;;;;4916204;29;20195;-73
2022/10/09 11:16:40;;;;;;;3.77;1.67;;;15.40;99.90;;;;;;4917626;29;20267;-72
2022/10/09 11:19:38;;;;;;;10.00;1.53;;;15.20;99.90;;;;;;4906480;29;20200;-71
2022/10/09 11:22:34;;;;;;;4.47;1.20;;;15.00;99.90;;;;;;4942207;29;20239;-71
2022/10/09 11:25:15;;;;;;;4.53;1.70;;;14.90;99.90;;;;;;4919947;28;20211;-71
2022/10/09 11:28:07;;;;;;;3.97;1.63;;;15.00;99.90;;;;;;4923204;29;20224;-71
2022/10/09 11:30:40;;;;;;;18.40;9.90;;;15.10;99.90;;;;;;4905224;29;20215;-71
2022/10/09 11:33:25;;;;;;;7.50;2.40;;;15.50;99.90;;;;;;4908122;29;20565;-72
2022/10/09 11:36:02;;;;;;;3.77;1.93;;;15.80;99.90;;;;;;4906218;29;20226;-72
2022/10/09 11:38:46;;;;;;;8.17;2.70;;;16.00;99.90;;;;;;4921864;29;20198;-72
2022/10/09 11:41:12;;;;;;;7.37;2.10;;;16.40;99.90;;;;;;4915879;29;20605;-72
2022/10/09 11:44:02;;;;;;;4.63;1.70;;;16.90;99.90;;;;;;4931030;28;20722;-71
2022/10/09 11:46:44;;;;;;;5.80;1.80;;;17.40;99.90;;;;;;4916106;29;20194;-70
2022/10/09 11:49:24;;;;;;;2.93;1.13;;;18.00;99.90;;;;;;4913812;28;20207;-73
2022/10/09 11:52:12;;;;;;;2.60;1.10;;;18.30;96.90;;;;;;4918301;29;20930;-71
2022/10/09 11:54:39;;;;;;;6.07;3.03;;;18.30;96.90;;;;;;4912474;28;21050;-71
2022/10/09 11:57:05;;;;;;;9.87;4.27;;;18.70;96.80;;;;;;4916357;29;20201;-72
2022/10/09 11:59:34;;;;;;;5.00;3.07;;;18.70;95.50;;;;;;4916362;29;20507;-70
2022/10/09 12:02:21;;;;;;;4.87;1.60;;;18.80;95.80;;;;;;4918684;29;20192;-71
2022/10/09 12:04:46;;;;;;;4.03;1.77;;;18.90;95.90;;;;;;4911205;29;20667;-71
2022/10/09 12:07:13;;;;;;;3.07;1.37;;;19.10;94.80;;;;;;4924248;29;20196;-72
2022/10/09 12:09:42;;;;;;;6.60;2.60;;;19.10;94.90;;;;;;4926865;29;20224;-72
2022/10/09 12:12:20;;;;;;;2.93;1.40;;;19.00;94.60;;;;;;4935412;29;20207;-72
2022/10/09 12:14:50;;;;;;;3.83;1.60;;;19.00;95.90;;;;;;4917472;29;20314;-71
2022/10/09 12:17:17;;;;;;;3.97;1.40;;;19.20;95.10;;;;;;4918222;29;20564;-70
2022/10/09 12:19:43;;;;;;;4.77;1.47;;;19.40;93.80;;;;;;4912580;29;20207;-71
2022/10/09 12:22:20;;;;;;;6.50;2.10;;;19.80;95.10;;;;;;4913299;29;20193;-71
2022/10/09 12:24:50;;;;;;;6.37;2.60;;;19.40;93.10;;;;;;4913662;29;20200;-70
2022/10/09 12:27:39;;;;;;;4.27;1.87;;;19.90;91.70;;;;;;4919892;29;20235;-72
2022/10/09 12:30:11;;;;;;;9.57;4.53;;;20.40;90.10;;;;;;4916984;29;20207;-71
2022/10/09 12:32:55;;;;;;;4.30;1.70;;;20.70;90.90;;;;;;4916615;29;20197;-72
2022/10/09 12:35:28;;;;;;;3.50;1.20;;;21.10;90.30;;;;;;4911593;29;20294;-71
2022/10/09 12:37:53;;;;;;;5.27;2.53;;;21.30;88.40;;;;;;4912479;29;20192;-69
2022/10/09 12:40:23;;;;;;;3.30;1.20;;;20.80;86.90;;;;;;4920350;29;20293;-72
2022/10/09 12:42:52;;;;;;;10.10;5.30;;;20.20;88.10;;;;;;4928956;29;20534;-72
2022/10/09 12:45:29;;;;;;;4.03;1.27;;;19.80;90.70;;;;;;4914968;29;20208;-70
2022/10/09 12:47:58;;;;;;;5.10;2.03;;;20.20;90.60;;;;;;4917043;29;20195;-70
2022/10/09 12:50:31;;;;;;;3.63;1.40;;;20.80;90.40;;;;;;4917163;29;20210;-69
2022/10/09 12:53:02;;;;;;;4.07;2.03;;;21.40;88.20;;;;;;4933766;29;20265;-69
2022/10/09 12:55:34;;;;;;;6.57;1.87;;;21.80;87.10;;;;;;4905326;29;20251;-72
2022/10/09 12:58:10;;;;;;;4.67;1.80;;;22.30;86.40;;;;;;4907522;29;20193;-71
2022/10/09 13:00:36;;;;;;;4.40;1.77;;;22.60;83.70;;;;;;4914569;29;20277;-71
2022/10/09 13:03:01;;;;;;;3.53;1.60;;;22.80;83.70;;;;;;4929248;29;20585;-72
2022/10/09 13:05:40;;;;;;;3.63;1.50;;;23.00;80.90;;;;;;4915886;29;20209;-70
2022/10/09 13:08:24;;;;;;;3.97;1.30;;;23.10;81.00;;;;;;4923439;29;20205;-77
2022/10/09 13:10:50;;;;;;;3.60;1.67;;;23.30;78.20;;;;;;4911890;29;20992;-76